createdAt,value
2023-03-29T00:02:11.216Z,0.93
2023-03-29T00:04:37.563Z,0.93
2023-03-29T00:07:03.888Z,0.89
2023-03-29T00:09:30.214Z,0.85
2023-03-29T00:11:56.554Z,0.86
2023-03-29T00:14:22.998Z,0.80
2023-03-29T00:16:49.344Z,0.84
2023-03-29T00:19:15.619Z,0.87
2023-03-29T00:21:42.011Z,0.86
2023-03-29T00:24:08.373Z,0.85
2023-03-29T00:26:34.891Z,0.85
2023-03-29T00:29:02.032Z,0.87
2023-03-29T00:31:28.561Z,0.88
2023-03-29T00:33:54.782Z,0.90
2023-03-29T00:36:21.102Z,0.89
2023-03-29T00:38:47.420Z,0.90
2023-03-29T00:41:13.804Z,0.86
2023-03-29T00:43:40.160Z,0.86
2023-03-29T00:46:06.592Z,0.91
2023-03-29T00:48:32.880Z,0.89
2023-03-29T00:50:59.547Z,0.87
2023-03-29T00:53:25.774Z,0.87
2023-03-29T00:55:52.169Z,0.90
2023-03-29T00:58:18.550Z,0.91
2023-03-29T01:00:44.931Z,0.90
2023-03-29T01:03:11.424Z,0.88
2023-03-29T01:05:37.842Z,0.89
2023-03-29T01:08:04.193Z,0.90
2023-03-29T01:10:30.635Z,0.88
2023-03-29T01:12:56.972Z,0.87
2023-03-29T01:15:28.916Z,0.87
2023-03-29T01:17:55.279Z,0.87
2023-03-29T01:20:21.699Z,0.84
2023-03-29T01:22:49.036Z,0.85
2023-03-29T01:25:15.405Z,0.83
2023-03-29T01:27:41.766Z,0.83
2023-03-29T01:30:08.118Z,0.85
2023-03-29T01:32:34.646Z,0.83
2023-03-29T01:35:01.077Z,0.82
2023-03-29T01:54:49.556Z,0.74
2023-03-29T02:02:16.714Z,0.75
2023-03-29T02:04:43.120Z,0.75
2023-03-29T02:07:09.429Z,0.73
2023-03-29T02:09:35.769Z,0.75
2023-03-29T02:12:02.180Z,0.70
2023-03-29T02:14:28.550Z,0.71
2023-03-29T02:16:54.913Z,0.69
2023-03-29T02:19:21.259Z,0.71
2023-03-29T02:21:47.589Z,0.69
2023-03-29T02:24:14.067Z,0.66
2023-03-29T02:26:40.343Z,0.66
2023-03-29T02:29:06.707Z,0.67
2023-03-29T02:31:33.106Z,0.65
2023-03-29T02:33:59.489Z,0.65
2023-03-29T02:36:25.851Z,0.63
2023-03-29T02:38:52.243Z,0.62
2023-03-29T02:41:18.561Z,0.58
2023-03-29T02:43:44.923Z,0.56
2023-03-29T02:46:11.324Z,0.59
2023-03-29T02:48:37.628Z,0.60
2023-03-29T02:51:04.588Z,0.60
2023-03-29T02:53:30.817Z,0.58
2023-03-29T02:55:57.161Z,0.55
2023-03-29T02:58:27.629Z,0.59
2023-03-29T03:00:51.899Z,0.60
2023-03-29T03:03:18.334Z,0.63
2023-03-29T03:05:44.553Z,0.64
2023-03-29T03:08:10.948Z,0.64
2023-03-29T03:10:39.498Z,0.63
2023-03-29T03:13:05.862Z,0.62
2023-03-29T03:15:32.214Z,0.62
2023-03-29T03:17:58.579Z,0.60
2023-03-29T03:20:27.271Z,0.61
2023-03-29T03:22:51.606Z,0.57
2023-03-29T03:25:17.875Z,0.56
2023-03-29T03:27:44.244Z,0.56
2023-03-29T03:30:10.611Z,0.59
2023-03-29T03:32:37.051Z,0.62
2023-03-29T03:35:03.327Z,0.63
2023-03-29T03:37:29.727Z,0.67
2023-03-29T03:40:00.388Z,0.68
2023-03-29T03:42:27.008Z,0.70
2023-03-29T03:44:53.301Z,0.73
2023-03-29T03:47:19.633Z,0.69
2023-03-29T03:49:46.100Z,0.65
2023-03-29T03:52:12.447Z,0.67
2023-03-29T03:54:38.816Z,0.67
2023-03-29T03:57:05.377Z,0.67
2023-03-29T03:59:31.679Z,0.65
2023-03-29T04:01:58.038Z,0.67
2023-03-29T04:04:25.054Z,0.64
2023-03-29T04:06:51.331Z,0.69
2023-03-29T04:09:20.820Z,0.71
2023-03-29T04:11:47.160Z,0.72
2023-03-29T04:14:13.744Z,0.68
2023-03-29T04:16:39.998Z,0.70
2023-03-29T04:19:06.358Z,0.68
2023-03-29T04:21:32.718Z,0.66
2023-03-29T04:23:59.068Z,0.68
2023-03-29T04:26:25.462Z,0.67
2023-03-29T04:28:51.839Z,0.76
2023-03-29T04:31:18.413Z,0.98
2023-03-29T04:33:44.640Z,1.27
2023-03-29T04:36:11.187Z,1.54
2023-03-29T04:38:39.938Z,1.71
2023-03-29T04:41:06.257Z,1.80
2023-03-29T04:43:32.641Z,1.93
2023-03-29T04:45:59.065Z,2.09
2023-03-29T04:48:25.326Z,2.13
2023-03-29T04:50:51.781Z,2.30
2023-03-29T04:53:18.128Z,2.24
2023-03-29T04:55:44.502Z,2.44
2023-03-29T04:58:10.873Z,2.53
2023-03-29T05:00:37.237Z,2.63
2023-03-29T05:03:03.695Z,2.67
2023-03-29T05:05:30.065Z,2.83
2023-03-29T05:07:56.386Z,2.97
2023-03-29T05:10:22.764Z,3.11
2023-03-29T05:12:49.074Z,3.35
2023-03-29T05:15:15.480Z,3.27
2023-03-29T05:17:41.801Z,3.47
2023-03-29T05:20:08.154Z,3.62
2023-03-29T05:22:34.481Z,3.94
2023-03-29T05:25:00.913Z,3.80
2023-03-29T05:27:27.223Z,3.86
2023-03-29T05:29:53.573Z,3.95
2023-03-29T05:32:19.921Z,4.22
2023-03-29T05:34:46.283Z,4.22
2023-03-29T05:37:12.662Z,3.94
2023-03-29T05:39:39.048Z,3.90
2023-03-29T05:42:05.387Z,3.05
2023-03-29T05:44:31.977Z,2.93
2023-03-29T05:46:58.347Z,3.06
2023-03-29T05:49:24.728Z,2.97
2023-03-29T05:51:51.122Z,3.51
2023-03-29T05:54:17.508Z,4.37
2023-03-29T05:56:43.920Z,4.75
2023-03-29T05:59:10.201Z,4.28
2023-03-29T06:01:36.542Z,3.68
2023-03-29T06:04:03.030Z,3.48
2023-03-29T06:06:29.238Z,3.03
2023-03-29T06:08:55.729Z,2.83
2023-03-29T06:11:22.040Z,3.02
2023-03-29T06:13:48.385Z,3.29
2023-03-29T06:16:14.772Z,3.90
2023-03-29T06:18:41.164Z,4.41
2023-03-29T06:21:07.619Z,4.13
2023-03-29T06:23:34.042Z,4.56
2023-03-29T06:26:00.403Z,4.94
2023-03-29T06:28:26.756Z,5.08
2023-03-29T06:30:53.184Z,5.59
2023-03-29T06:33:19.548Z,5.84
2023-03-29T06:35:46.883Z,5.29
2023-03-29T06:38:13.202Z,4.44
2023-03-29T06:40:39.563Z,3.56
2023-03-29T06:43:05.934Z,3.25
2023-03-29T06:45:32.344Z,3.13
2023-03-29T06:47:59.041Z,2.98
2023-03-29T06:50:25.713Z,3.08
2023-03-29T06:52:52.111Z,3.83
2023-03-29T06:55:18.466Z,4.63
2023-03-29T06:57:44.817Z,5.29
2023-03-29T07:00:11.139Z,5.42
2023-03-29T07:02:37.637Z,5.74
2023-03-29T07:05:04.001Z,5.41
2023-03-29T07:07:30.535Z,5.69
2023-03-29T07:09:59.691Z,6.05
2023-03-29T07:12:26.098Z,6.24
2023-03-29T07:14:52.547Z,6.10
2023-03-29T07:17:18.967Z,5.39
2023-03-29T07:19:45.300Z,4.27
2023-03-29T07:22:11.646Z,4.42
2023-03-29T07:24:38.033Z,4.88
2023-03-29T07:27:04.943Z,4.65
2023-03-29T07:29:30.683Z,5.37
2023-03-29T07:31:57.086Z,5.74
2023-03-29T07:34:23.449Z,6.26
2023-03-29T07:36:49.846Z,6.19
2023-03-29T07:39:16.219Z,6.21
2023-03-29T07:41:42.632Z,5.92
2023-03-29T07:44:08.975Z,6.37
2023-03-29T07:46:35.383Z,6.71
2023-03-29T07:49:01.714Z,7.21
2023-03-29T07:51:28.256Z,7.02
2023-03-29T07:53:54.577Z,6.98
2023-03-29T07:56:20.930Z,6.97
2023-03-29T07:58:47.506Z,7.54
2023-03-29T08:01:15.354Z,7.77
2023-03-29T08:03:40.258Z,7.96
2023-03-29T08:06:06.696Z,7.85
2023-03-29T08:08:33.031Z,8.13
2023-03-29T08:10:59.480Z,8.18
2023-03-29T08:13:25.835Z,8.42
2023-03-29T08:15:52.557Z,8.20
2023-03-29T08:18:19.008Z,8.09
2023-03-29T08:20:45.362Z,7.29
2023-03-29T08:23:11.868Z,7.95
2023-03-29T08:25:38.252Z,8.11
2023-03-29T08:28:07.043Z,7.68
2023-03-29T08:30:33.471Z,8.05
2023-03-29T08:32:59.816Z,7.98
2023-03-29T08:35:26.162Z,7.70
2023-03-29T08:37:52.598Z,8.23
2023-03-29T08:40:18.984Z,8.26
2023-03-29T08:42:45.301Z,8.36
2023-03-29T08:45:11.796Z,8.98
2023-03-29T08:47:38.157Z,8.33
2023-03-29T08:50:04.626Z,8.43
2023-03-29T08:52:33.365Z,8.75
2023-03-29T08:54:59.748Z,9.01
2023-03-29T08:57:26.515Z,8.96
2023-03-29T08:59:52.846Z,8.81
2023-03-29T09:02:19.268Z,8.94
2023-03-29T09:04:45.588Z,9.13
2023-03-29T09:07:11.972Z,8.90
2023-03-29T09:09:38.675Z,9.19
2023-03-29T09:12:05.056Z,9.57
2023-03-29T09:14:31.464Z,9.85
2023-03-29T09:16:57.832Z,9.92
2023-03-29T09:19:24.222Z,9.29
2023-03-29T09:21:50.627Z,9.28
2023-03-29T09:24:17.007Z,9.66
2023-03-29T09:26:43.560Z,10.42
2023-03-29T09:29:09.976Z,10.53
2023-03-29T09:31:36.350Z,10.94
2023-03-29T09:34:02.762Z,10.74
2023-03-29T09:36:29.124Z,10.29
2023-03-29T09:38:55.531Z,10.66
2023-03-29T09:41:21.823Z,11.00
2023-03-29T09:43:48.242Z,11.03
2023-03-29T09:46:14.693Z,10.55
2023-03-29T09:48:40.958Z,10.30
2023-03-29T09:51:07.380Z,10.98
2023-03-29T09:53:33.785Z,10.83
2023-03-29T09:56:00.133Z,10.84
2023-03-29T09:58:26.548Z,10.66
2023-03-29T10:00:52.902Z,10.22
2023-03-29T10:03:19.316Z,10.20
2023-03-29T10:05:45.631Z,10.12
2023-03-29T10:08:11.943Z,10.66
2023-03-29T10:10:38.308Z,10.29
2023-03-29T10:13:04.725Z,10.22
2023-03-29T10:15:31.055Z,10.77
2023-03-29T10:17:57.548Z,11.11
2023-03-29T10:20:23.805Z,11.44
2023-03-29T10:22:50.168Z,11.40
2023-03-29T10:25:16.589Z,11.21
2023-03-29T10:27:43.026Z,11.37
2023-03-29T10:30:09.392Z,10.92
2023-03-29T10:32:35.819Z,11.46
2023-03-29T10:35:02.099Z,11.81
2023-03-29T10:37:28.640Z,11.77
2023-03-29T10:39:54.940Z,11.76
2023-03-29T10:42:21.352Z,11.04
2023-03-29T10:44:47.735Z,10.77
2023-03-29T10:47:14.113Z,10.96
2023-03-29T10:49:40.432Z,11.56
2023-03-29T10:52:06.780Z,11.42
2023-03-29T10:54:33.145Z,11.43
2023-03-29T10:56:59.523Z,11.27
2023-03-29T10:59:25.836Z,11.42
2023-03-29T11:01:52.270Z,10.98
2023-03-29T11:04:18.609Z,11.32
2023-03-29T11:06:44.984Z,11.84
2023-03-29T11:09:11.345Z,11.55
2023-03-29T11:11:37.702Z,11.32
2023-03-29T11:14:04.372Z,11.43
2023-03-29T11:16:30.692Z,11.76
2023-03-29T11:18:57.052Z,11.84
2023-03-29T11:21:23.449Z,11.91
2023-03-29T11:23:49.825Z,11.79
2023-03-29T11:26:16.219Z,11.37
2023-03-29T11:28:42.584Z,11.31
2023-03-29T11:31:08.952Z,11.31
2023-03-29T11:33:35.386Z,10.85
2023-03-29T11:36:01.814Z,10.94
2023-03-29T11:38:28.096Z,11.48
2023-03-29T11:40:54.471Z,11.20
2023-03-29T11:43:20.818Z,11.16
2023-03-29T11:45:47.180Z,11.19
2023-03-29T11:48:13.581Z,11.48
2023-03-29T11:50:40.252Z,11.32
2023-03-29T11:53:06.634Z,11.54
2023-03-29T11:55:32.973Z,11.46
2023-03-29T11:57:59.372Z,11.39
2023-03-29T12:00:25.753Z,11.59
2023-03-29T12:02:52.190Z,11.39
2023-03-29T12:05:18.475Z,11.55
2023-03-29T12:07:44.854Z,11.28
2023-03-29T12:10:11.245Z,11.30
2023-03-29T12:12:37.643Z,11.44
2023-03-29T12:15:04.083Z,11.43
2023-03-29T12:17:30.919Z,11.51
2023-03-29T12:19:57.247Z,11.33
2023-03-29T12:22:23.589Z,10.92
2023-03-29T12:24:50.179Z,11.39
2023-03-29T12:27:16.553Z,11.41
2023-03-29T12:29:42.946Z,11.41
2023-03-29T12:32:09.381Z,11.50
2023-03-29T12:34:35.681Z,11.52
2023-03-29T12:37:02.125Z,11.13
2023-03-29T12:39:28.447Z,11.37
2023-03-29T12:41:54.838Z,11.45
2023-03-29T12:44:21.243Z,11.52
2023-03-29T12:46:47.898Z,11.75
2023-03-29T12:49:14.279Z,11.96
2023-03-29T12:51:40.593Z,11.67
2023-03-29T12:54:06.944Z,11.01
2023-03-29T12:56:33.320Z,10.66
2023-03-29T12:58:59.728Z,10.48
2023-03-29T13:01:26.154Z,10.38
2023-03-29T13:03:52.779Z,9.94
2023-03-29T13:06:19.173Z,9.62
2023-03-29T13:08:45.526Z,9.84
2023-03-29T13:11:11.903Z,9.99
2023-03-29T13:13:38.288Z,10.07
2023-03-29T13:16:04.952Z,9.77
2023-03-29T13:18:31.051Z,9.74
2023-03-29T13:20:57.432Z,9.55
2023-03-29T13:23:23.834Z,9.74
2023-03-29T13:25:50.252Z,9.66
2023-03-29T13:28:16.663Z,9.52
2023-03-29T13:30:43.031Z,9.36
2023-03-29T13:33:09.392Z,9.22
2023-03-29T13:35:35.821Z,9.04
2023-03-29T13:38:02.187Z,8.91
2023-03-29T13:40:28.570Z,9.03
2023-03-29T13:42:54.972Z,9.21
2023-03-29T13:45:21.345Z,9.32
2023-03-29T13:47:58.661Z,9.29
2023-03-29T13:50:14.070Z,9.46
2023-03-29T13:52:40.406Z,9.35
2023-03-29T13:55:06.763Z,9.49
2023-03-29T13:57:33.132Z,9.51
2023-03-29T14:00:01.943Z,9.40
2023-03-29T14:02:28.513Z,9.44
2023-03-29T14:04:54.833Z,9.32
2023-03-29T14:07:21.182Z,9.20
2023-03-29T14:09:47.546Z,9.19
2023-03-29T14:12:13.910Z,9.30
2023-03-29T14:14:51.714Z,9.33
2023-03-29T14:17:06.795Z,9.25
2023-03-29T14:19:33.168Z,9.33
2023-03-29T14:21:59.497Z,9.33
2023-03-29T14:24:25.929Z,9.35
2023-03-29T14:26:52.241Z,9.32
2023-03-29T14:29:19.595Z,9.17
2023-03-29T14:31:45.958Z,9.12
2023-03-29T14:34:12.332Z,9.12
2023-03-29T14:36:38.868Z,9.13
2023-03-29T14:39:05.146Z,9.23
2023-03-29T14:41:31.427Z,9.19
2023-03-29T14:43:57.793Z,9.12
2023-03-29T14:46:24.252Z,9.05
2023-03-29T14:48:50.609Z,9.05
2023-03-29T14:51:16.931Z,9.12
2023-03-29T14:53:43.338Z,9.18
2023-03-29T14:56:09.709Z,9.13
2023-03-29T14:58:36.094Z,9.04
2023-03-29T15:01:02.906Z,9.01
2023-03-29T15:03:29.301Z,8.90
2023-03-29T15:05:55.524Z,8.88
2023-03-29T15:08:21.877Z,8.87
2023-03-29T15:10:48.238Z,8.89
2023-03-29T15:13:14.647Z,8.80
2023-03-29T15:15:41.007Z,8.73
2023-03-29T15:18:07.530Z,8.69
2023-03-29T15:20:33.847Z,8.58
2023-03-29T15:23:02.412Z,8.56
2023-03-29T15:25:28.739Z,8.48
2023-03-29T15:27:55.125Z,8.42
2023-03-29T15:30:21.506Z,8.41
2023-03-29T15:32:48.008Z,8.40
2023-03-29T15:35:14.303Z,8.38
2023-03-29T15:37:40.718Z,8.35
2023-03-29T15:40:07.074Z,8.35
2023-03-29T15:42:33.433Z,8.35
2023-03-29T15:44:59.777Z,8.25
2023-03-29T15:47:26.259Z,8.18
2023-03-29T15:49:52.596Z,8.14
2023-03-29T15:52:19.024Z,8.09
2023-03-29T15:54:45.388Z,8.07
2023-03-29T15:57:11.836Z,8.07
2023-03-29T15:59:38.173Z,8.08
2023-03-29T16:02:04.604Z,8.09
2023-03-29T16:04:30.868Z,8.06
2023-03-29T16:06:57.549Z,8.02
2023-03-29T16:09:23.879Z,7.97
2023-03-29T16:11:50.270Z,7.95
2023-03-29T16:14:16.698Z,7.92
2023-03-29T16:16:43.103Z,7.85
2023-03-29T16:19:09.503Z,7.83
2023-03-29T16:21:35.857Z,7.85
2023-03-29T16:24:02.230Z,7.80
2023-03-29T16:26:28.565Z,7.81
2023-03-29T16:28:54.891Z,7.85
2023-03-29T16:31:21.468Z,7.84
2023-03-29T16:33:47.768Z,7.83
2023-03-29T16:36:14.300Z,7.78
2023-03-29T16:38:40.707Z,7.76
2023-03-29T16:41:07.104Z,7.73
2023-03-29T16:43:33.638Z,7.72
2023-03-29T16:46:00.194Z,7.71
2023-03-29T16:48:26.557Z,7.69
2023-03-29T16:50:53.109Z,7.66
2023-03-29T16:53:19.436Z,7.64
2023-03-29T16:55:45.815Z,7.61
2023-03-29T16:58:12.274Z,7.59
2023-03-29T17:00:38.659Z,7.59
2023-03-29T17:03:05.081Z,7.60
2023-03-29T17:05:31.784Z,7.62
2023-03-29T17:07:58.212Z,7.62
2023-03-29T17:10:24.656Z,7.59
2023-03-29T17:12:51.210Z,7.56
2023-03-29T17:15:17.553Z,7.55
2023-03-29T17:17:43.968Z,7.57
2023-03-29T17:20:10.310Z,7.54
2023-03-29T17:22:36.616Z,7.51
2023-03-29T17:25:03.020Z,7.50
2023-03-29T17:27:29.524Z,7.51
2023-03-29T17:29:55.926Z,7.51
2023-03-29T17:32:22.334Z,7.51
2023-03-29T17:34:48.793Z,7.50
2023-03-29T17:37:15.149Z,7.51
2023-03-29T17:39:41.482Z,7.48
2023-03-29T17:42:07.986Z,7.45
2023-03-29T17:44:34.353Z,7.44
2023-03-29T17:47:01.148Z,7.46
2023-03-29T17:49:27.618Z,7.43
2023-03-29T17:51:54.002Z,7.43
2023-03-29T17:54:20.339Z,7.43
2023-03-29T17:56:46.720Z,7.45
2023-03-29T17:59:13.076Z,7.44
2023-03-29T18:01:40.521Z,7.45
2023-03-29T18:04:06.844Z,7.42
2023-03-29T18:06:33.173Z,7.34
2023-03-29T18:08:59.516Z,7.37
2023-03-29T18:11:25.857Z,7.37
2023-03-29T18:13:52.300Z,7.37
2023-03-29T18:16:18.692Z,7.34
2023-03-29T18:18:46.349Z,7.32
2023-03-29T18:21:12.584Z,7.29
2023-03-29T18:23:38.995Z,7.28
2023-03-29T18:26:05.681Z,7.23
2023-03-29T18:28:31.820Z,7.20
2023-03-29T18:30:58.250Z,7.17
2023-03-29T18:33:24.936Z,7.14
2023-03-29T18:35:51.236Z,7.16
2023-03-29T18:38:17.575Z,7.14
2023-03-29T18:40:43.995Z,7.11
2023-03-29T18:43:10.304Z,7.07
2023-03-29T18:45:36.652Z,7.04
2023-03-29T18:48:03.048Z,7.01
2023-03-29T18:50:29.298Z,6.95
2023-03-29T18:52:55.676Z,6.92
2023-03-29T18:55:22.038Z,6.87
2023-03-29T18:57:48.378Z,6.85
2023-03-29T19:00:14.770Z,6.86
2023-03-29T19:02:41.288Z,6.88
2023-03-29T19:05:07.538Z,6.84
2023-03-29T19:07:33.947Z,6.82
2023-03-29T19:10:00.336Z,6.81
2023-03-29T19:12:26.747Z,6.82
2023-03-29T19:14:53.127Z,6.82
2023-03-29T19:17:19.464Z,6.80
2023-03-29T19:19:45.871Z,6.81
2023-03-29T19:22:12.295Z,6.82
2023-03-29T19:24:38.656Z,6.83
2023-03-29T19:27:05.012Z,6.85
2023-03-29T19:29:31.711Z,6.84
2023-03-29T19:31:58.113Z,6.84
2023-03-29T19:34:24.824Z,6.86
2023-03-29T19:36:51.244Z,6.85
2023-03-29T19:39:17.634Z,6.86
2023-03-29T19:41:44.039Z,6.82
2023-03-29T19:44:10.397Z,6.86
2023-03-29T19:46:36.741Z,6.87
2023-03-29T19:49:05.138Z,6.87
2023-03-29T19:51:29.511Z,6.87
2023-03-29T19:53:56.856Z,6.86
2023-03-29T19:56:23.323Z,6.84
2023-03-29T19:58:49.680Z,6.85
2023-03-29T20:01:16.064Z,6.84
2023-03-29T20:03:43.847Z,6.79
2023-03-29T20:06:08.848Z,6.74
2023-03-29T20:08:35.179Z,6.75
2023-03-29T20:11:01.790Z,6.77
2023-03-29T20:13:37.650Z,6.77
2023-03-29T20:15:54.248Z,6.80
2023-03-29T20:18:20.571Z,6.80
2023-03-29T20:20:46.917Z,6.78
2023-03-29T20:23:13.333Z,6.87
2023-03-29T20:25:39.706Z,6.92
2023-03-29T20:28:06.095Z,6.91
2023-03-29T20:30:32.501Z,6.88
2023-03-29T20:32:58.841Z,6.86
2023-03-29T20:35:25.201Z,6.90
2023-03-29T20:37:51.980Z,6.95
2023-03-29T20:40:18.374Z,6.96
2023-03-29T20:42:44.734Z,6.99
2023-03-29T20:45:11.151Z,6.99
2023-03-29T20:47:37.513Z,7.02
2023-03-29T20:50:04.001Z,7.05
2023-03-29T20:52:30.340Z,7.06
2023-03-29T20:54:56.867Z,7.07
2023-03-29T20:57:23.643Z,7.06
2023-03-29T20:59:49.938Z,7.08
2023-03-29T21:02:16.315Z,7.06
2023-03-29T21:04:42.710Z,7.08
2023-03-29T21:07:09.319Z,7.09
2023-03-29T21:09:35.732Z,7.09
2023-03-29T21:12:02.067Z,7.08
2023-03-29T21:14:28.428Z,7.07
2023-03-29T21:16:54.756Z,7.12
2023-03-29T21:19:21.091Z,7.13
2023-03-29T21:21:47.637Z,7.13
2023-03-29T21:24:14.051Z,7.14
2023-03-29T21:26:40.347Z,7.13
2023-03-29T21:29:06.756Z,7.10
2023-03-29T21:31:33.177Z,7.11
2023-03-29T21:33:59.463Z,7.17
2023-03-29T21:36:26.150Z,7.19
2023-03-29T21:38:52.549Z,7.20
2023-03-29T21:41:18.878Z,7.21
2023-03-29T21:43:45.257Z,7.22
2023-03-29T21:46:11.682Z,7.21
2023-03-29T21:48:38.334Z,7.21
2023-03-29T21:51:04.949Z,7.23
2023-03-29T21:53:31.083Z,7.25
2023-03-29T21:55:57.488Z,7.23
2023-03-29T21:58:23.815Z,7.23
2023-03-29T22:00:50.228Z,7.26
2023-03-29T22:03:16.848Z,7.27
2023-03-29T22:05:43.067Z,7.26
2023-03-29T22:08:09.412Z,7.26
2023-03-29T22:10:35.798Z,7.28
2023-03-29T22:13:02.210Z,7.28
2023-03-29T22:15:28.599Z,7.26
2023-03-29T22:17:55.490Z,7.25
2023-03-29T22:20:21.303Z,7.26
2023-03-29T22:22:47.641Z,7.29
2023-03-29T22:25:14.037Z,7.27
2023-03-29T22:27:40.361Z,7.25
2023-03-29T22:30:06.737Z,7.28
2023-03-29T22:32:33.242Z,7.28
2023-03-29T22:34:59.469Z,7.29
2023-03-29T22:37:25.850Z,7.26
2023-03-29T22:39:52.310Z,7.29
2023-03-29T22:42:18.611Z,7.32
2023-03-29T22:44:44.962Z,7.36
2023-03-29T22:47:11.543Z,7.39
2023-03-29T22:49:37.936Z,7.44
2023-03-29T22:52:04.231Z,7.47
2023-03-29T22:54:30.990Z,7.48
2023-03-29T22:56:57.377Z,7.48
2023-03-29T22:59:23.715Z,7.51
2023-03-29T23:01:50.191Z,7.50
2023-03-29T23:04:16.466Z,7.51
2023-03-29T23:06:42.822Z,7.48
2023-03-29T23:09:09.226Z,7.48
2023-03-29T23:11:35.534Z,7.50
2023-03-29T23:14:02.029Z,7.32
2023-03-29T23:16:28.490Z,7.13
2023-03-29T23:18:54.736Z,7.03
2023-03-29T23:21:21.057Z,7.14
2023-03-29T23:23:47.403Z,7.25
2023-03-29T23:26:13.736Z,7.29
2023-03-29T23:28:40.089Z,7.36
2023-03-29T23:31:06.599Z,7.39
2023-03-29T23:33:32.765Z,7.39
2023-03-29T23:35:59.219Z,7.38
2023-03-29T23:38:25.547Z,7.38
2023-03-29T23:40:51.904Z,7.37
2023-03-29T23:43:18.266Z,7.35
2023-03-29T23:45:44.630Z,7.31
2023-03-29T23:48:11.007Z,7.28
2023-03-29T23:50:37.371Z,7.24
2023-03-29T23:53:03.718Z,7.24
2023-03-29T23:55:30.047Z,7.22
2023-03-29T23:57:56.458Z,7.21
